sensor_id;sensor_type;location;lat;lon;timestamp;P1;durP1;ratioP1;P2;durP2;ratioP2
52248;SDS011;38541;48.130;8.378;2023-03-04T00:01:50;25.25;;;19.45;;
52248;SDS011;38541;48.130;8.378;2023-03-04T00:04:16;28.40;;;21.17;;
52248;SDS011;38541;48.130;8.378;2023-03-04T00:06:43;28.80;;;20.63;;
52248;SDS011;38541;48.130;8.378;2023-03-04T00:09:09;31.73;;;22.40;;
52248;SDS011;38541;48.130;8.378;2023-03-04T00:11:36;30.77;;;22.05;;
52248;SDS011;38541;48.130;8.378;2023-03-04T00:14:02;28.95;;;21.15;;
52248;SDS011;38541;48.130;8.378;2023-03-04T00:16:29;31.42;;;22.20;;
52248;SDS011;38541;48.130;8.378;2023-03-04T00:18:55;32.50;;;22.70;;
52248;SDS011;38541;48.130;8.378;2023-03-04T00:21:23;28.98;;;21.85;;
52248;SDS011;38541;48.130;8.378;2023-03-04T00:23:49;30.15;;;21.58;;
52248;SDS011;38541;48.130;8.378;2023-03-04T00:26:16;29.75;;;22.00;;
52248;SDS011;38541;48.130;8.378;2023-03-04T00:28:44;34.08;;;22.42;;
52248;SDS011;38541;48.130;8.378;2023-03-04T00:31:11;30.63;;;21.92;;
52248;SDS011;38541;48.130;8.378;2023-03-04T00:33:37;33.60;;;22.77;;
52248;SDS011;38541;48.130;8.378;2023-03-04T00:36:05;31.98;;;22.67;;
52248;SDS011;38541;48.130;8.378;2023-03-04T00:38:32;30.00;;;22.10;;
52248;SDS011;38541;48.130;8.378;2023-03-04T00:40:58;28.10;;;21.88;;
52248;SDS011;38541;48.130;8.378;2023-03-04T00:43:25;32.10;;;23.25;;
52248;SDS011;38541;48.130;8.378;2023-03-04T00:45:51;29.85;;;21.88;;
52248;SDS011;38541;48.130;8.378;2023-03-04T00:48:18;30.08;;;21.30;;
52248;SDS011;38541;48.130;8.378;2023-03-04T00:50:44;28.98;;;22.02;;
52248;SDS011;38541;48.130;8.378;2023-03-04T00:53:10;30.35;;;23.27;;
52248;SDS011;38541;48.130;8.378;2023-03-04T00:55:37;34.10;;;21.23;;
52248;SDS011;38541;48.130;8.378;2023-03-04T00:58:03;28.33;;;21.73;;
52248;SDS011;38541;48.130;8.378;2023-03-04T01:00:30;27.10;;;21.52;;
52248;SDS011;38541;48.130;8.378;2023-03-04T01:02:56;35.97;;;23.42;;
52248;SDS011;38541;48.130;8.378;2023-03-04T01:05:23;32.63;;;22.80;;
52248;SDS011;38541;48.130;8.378;2023-03-04T01:07:49;28.17;;;21.45;;
52248;SDS011;38541;48.130;8.378;2023-03-04T01:10:16;28.05;;;21.23;;
52248;SDS011;38541;48.130;8.378;2023-03-04T01:12:43;29.85;;;22.58;;
52248;SDS011;38541;48.130;8.378;2023-03-04T01:15:10;30.73;;;23.05;;
52248;SDS011;38541;48.130;8.378;2023-03-04T01:17:38;33.40;;;23.92;;
52248;SDS011;38541;48.130;8.378;2023-03-04T01:20:05;31.77;;;22.58;;
52248;SDS011;38541;48.130;8.378;2023-03-04T01:22:34;32.10;;;23.63;;
52248;SDS011;38541;48.130;8.378;2023-03-04T01:25:00;30.92;;;22.33;;
52248;SDS011;38541;48.130;8.378;2023-03-04T01:27:27;32.15;;;21.52;;
52248;SDS011;38541;48.130;8.378;2023-03-04T01:29:54;28.00;;;19.95;;
52248;SDS011;38541;48.130;8.378;2023-03-04T01:32:21;32.20;;;22.50;;
52248;SDS011;38541;48.130;8.378;2023-03-04T01:34:47;36.30;;;24.45;;
52248;SDS011;38541;48.130;8.378;2023-03-04T01:37:14;33.65;;;24.67;;
52248;SDS011;38541;48.130;8.378;2023-03-04T01:39:40;35.00;;;24.35;;
52248;SDS011;38541;48.130;8.378;2023-03-04T01:42:16;35.42;;;24.67;;
52248;SDS011;38541;48.130;8.378;2023-03-04T01:44:44;34.38;;;23.38;;
52248;SDS011;38541;48.130;8.378;2023-03-04T01:47:12;33.63;;;22.42;;
52248;SDS011;38541;48.130;8.378;2023-03-04T01:49:40;29.33;;;22.58;;
52248;SDS011;38541;48.130;8.378;2023-03-04T01:52:09;29.92;;;20.88;;
52248;SDS011;38541;48.130;8.378;2023-03-04T01:54:38;33.17;;;22.27;;
52248;SDS011;38541;48.130;8.378;2023-03-04T01:57:08;36.75;;;23.20;;
52248;SDS011;38541;48.130;8.378;2023-03-04T01:59:42;33.80;;;23.15;;
52248;SDS011;38541;48.130;8.378;2023-03-04T02:02:08;35.45;;;23.67;;
52248;SDS011;38541;48.130;8.378;2023-03-04T02:04:35;33.15;;;22.52;;
52248;SDS011;38541;48.130;8.378;2023-03-04T02:07:02;33.10;;;24.58;;
52248;SDS011;38541;48.130;8.378;2023-03-04T02:09:30;41.10;;;28.52;;
52248;SDS011;38541;48.130;8.378;2023-03-04T02:11:58;36.08;;;26.08;;
52248;SDS011;38541;48.130;8.378;2023-03-04T02:14:25;35.28;;;25.00;;
52248;SDS011;38541;48.130;8.378;2023-03-04T02:16:51;29.65;;;22.58;;
52248;SDS011;38541;48.130;8.378;2023-03-04T02:19:25;29.30;;;20.42;;
52248;SDS011;38541;48.130;8.378;2023-03-04T02:22:02;32.20;;;22.52;;
52248;SDS011;38541;48.130;8.378;2023-03-04T02:24:38;32.33;;;22.95;;
52248;SDS011;38541;48.130;8.378;2023-03-04T02:27:08;30.00;;;22.08;;
52248;SDS011;38541;48.130;8.378;2023-03-04T02:29:34;32.90;;;22.55;;
52248;SDS011;38541;48.130;8.378;2023-03-04T02:32:02;36.25;;;23.48;;
52248;SDS011;38541;48.130;8.378;2023-03-04T02:34:32;36.03;;;23.63;;
52248;SDS011;38541;48.130;8.378;2023-03-04T02:37:00;36.58;;;23.40;;
52248;SDS011;38541;48.130;8.378;2023-03-04T02:39:33;34.85;;;25.02;;
52248;SDS011;38541;48.130;8.378;2023-03-04T02:42:09;33.60;;;21.48;;
52248;SDS011;38541;48.130;8.378;2023-03-04T02:44:37;30.45;;;21.73;;
52248;SDS011;38541;48.130;8.378;2023-03-04T02:47:07;34.10;;;23.52;;
52248;SDS011;38541;48.130;8.378;2023-03-04T02:49:36;34.08;;;21.95;;
52248;SDS011;38541;48.130;8.378;2023-03-04T02:52:10;33.33;;;23.17;;
52248;SDS011;38541;48.130;8.378;2023-03-04T02:54:39;30.83;;;21.90;;
52248;SDS011;38541;48.130;8.378;2023-03-04T02:57:07;34.53;;;24.33;;
52248;SDS011;38541;48.130;8.378;2023-03-04T02:59:39;28.98;;;21.98;;
52248;SDS011;38541;48.130;8.378;2023-03-04T03:02:10;36.40;;;25.30;;
52248;SDS011;38541;48.130;8.378;2023-03-04T03:04:37;35.05;;;24.50;;
52248;SDS011;38541;48.130;8.378;2023-03-04T03:07:09;31.67;;;21.95;;
52248;SDS011;38541;48.130;8.378;2023-03-04T03:09:36;36.22;;;23.35;;
52248;SDS011;38541;48.130;8.378;2023-03-04T03:12:02;35.35;;;23.38;;
52248;SDS011;38541;48.130;8.378;2023-03-04T03:14:30;32.08;;;22.05;;
52248;SDS011;38541;48.130;8.378;2023-03-04T03:16:57;35.10;;;23.25;;
52248;SDS011;38541;48.130;8.378;2023-03-04T03:19:24;36.63;;;24.92;;
52248;SDS011;38541;48.130;8.378;2023-03-04T03:21:51;39.78;;;25.52;;
52248;SDS011;38541;48.130;8.378;2023-03-04T03:24:18;53.70;;;31.88;;
52248;SDS011;38541;48.130;8.378;2023-03-04T03:26:45;82.82;;;41.65;;
52248;SDS011;38541;48.130;8.378;2023-03-04T03:29:12;59.50;;;32.40;;
52248;SDS011;38541;48.130;8.378;2023-03-04T03:31:38;41.53;;;27.30;;
52248;SDS011;38541;48.130;8.378;2023-03-04T03:34:05;37.92;;;25.02;;
52248;SDS011;38541;48.130;8.378;2023-03-04T03:36:31;36.35;;;24.52;;
52248;SDS011;38541;48.130;8.378;2023-03-04T03:38:58;45.05;;;28.13;;
52248;SDS011;38541;48.130;8.378;2023-03-04T03:41:24;61.13;;;33.40;;
52248;SDS011;38541;48.130;8.378;2023-03-04T03:43:51;70.57;;;36.40;;
52248;SDS011;38541;48.130;8.378;2023-03-04T03:46:17;64.63;;;33.65;;
52248;SDS011;38541;48.130;8.378;2023-03-04T03:48:43;72.30;;;39.20;;
52248;SDS011;38541;48.130;8.378;2023-03-04T03:51:10;83.25;;;44.10;;
52248;SDS011;38541;48.130;8.378;2023-03-04T03:53:36;75.03;;;39.67;;
52248;SDS011;38541;48.130;8.378;2023-03-04T03:56:03;56.05;;;34.25;;
52248;SDS011;38541;48.130;8.378;2023-03-04T03:58:30;40.72;;;27.75;;
52248;SDS011;38541;48.130;8.378;2023-03-04T04:00:56;39.33;;;26.65;;
52248;SDS011;38541;48.130;8.378;2023-03-04T04:03:23;40.72;;;25.35;;
52248;SDS011;38541;48.130;8.378;2023-03-04T04:05:50;37.42;;;24.80;;
52248;SDS011;38541;48.130;8.378;2023-03-04T04:08:17;66.60;;;36.83;;
52248;SDS011;38541;48.130;8.378;2023-03-04T04:10:44;42.63;;;25.70;;
52248;SDS011;38541;48.130;8.378;2023-03-04T04:13:10;46.42;;;27.67;;
52248;SDS011;38541;48.130;8.378;2023-03-04T04:15:37;46.03;;;26.38;;
52248;SDS011;38541;48.130;8.378;2023-03-04T04:18:05;45.80;;;27.15;;
52248;SDS011;38541;48.130;8.378;2023-03-04T04:20:32;63.35;;;35.75;;
52248;SDS011;38541;48.130;8.378;2023-03-04T04:22:58;44.08;;;30.20;;
52248;SDS011;38541;48.130;8.378;2023-03-04T04:25:25;43.63;;;27.63;;
52248;SDS011;38541;48.130;8.378;2023-03-04T04:27:51;40.58;;;26.65;;
52248;SDS011;38541;48.130;8.378;2023-03-04T04:30:18;38.80;;;26.60;;
52248;SDS011;38541;48.130;8.378;2023-03-04T04:32:44;50.17;;;31.00;;
52248;SDS011;38541;48.130;8.378;2023-03-04T04:35:10;43.17;;;26.10;;
52248;SDS011;38541;48.130;8.378;2023-03-04T04:37:37;39.22;;;26.27;;
52248;SDS011;38541;48.130;8.378;2023-03-04T04:40:03;38.85;;;25.50;;
52248;SDS011;38541;48.130;8.378;2023-03-04T04:42:30;37.70;;;23.70;;
52248;SDS011;38541;48.130;8.378;2023-03-04T04:44:57;37.85;;;24.92;;
52248;SDS011;38541;48.130;8.378;2023-03-04T04:47:23;38.13;;;24.83;;
52248;SDS011;38541;48.130;8.378;2023-03-04T04:49:50;38.30;;;26.20;;
52248;SDS011;38541;48.130;8.378;2023-03-04T04:52:17;40.67;;;24.75;;
52248;SDS011;38541;48.130;8.378;2023-03-04T04:54:43;39.50;;;26.00;;
52248;SDS011;38541;48.130;8.378;2023-03-04T04:57:10;34.88;;;24.70;;
52248;SDS011;38541;48.130;8.378;2023-03-04T04:59:36;39.42;;;24.45;;
52248;SDS011;38541;48.130;8.378;2023-03-04T05:02:02;34.88;;;23.92;;
52248;SDS011;38541;48.130;8.378;2023-03-04T05:04:29;30.83;;;22.70;;
52248;SDS011;38541;48.130;8.378;2023-03-04T05:06:55;35.80;;;24.25;;
52248;SDS011;38541;48.130;8.378;2023-03-04T05:09:22;33.22;;;22.85;;
52248;SDS011;38541;48.130;8.378;2023-03-04T05:11:48;38.80;;;24.05;;
52248;SDS011;38541;48.130;8.378;2023-03-04T05:14:15;33.42;;;23.35;;
52248;SDS011;38541;48.130;8.378;2023-03-04T05:16:41;31.52;;;21.83;;
52248;SDS011;38541;48.130;8.378;2023-03-04T05:19:08;31.73;;;21.77;;
52248;SDS011;38541;48.130;8.378;2023-03-04T05:21:34;33.95;;;22.48;;
52248;SDS011;38541;48.130;8.378;2023-03-04T05:24:01;40.88;;;24.00;;
52248;SDS011;38541;48.130;8.378;2023-03-04T05:26:27;44.03;;;26.80;;
52248;SDS011;38541;48.130;8.378;2023-03-04T05:28:53;44.13;;;30.67;;
52248;SDS011;38541;48.130;8.378;2023-03-04T05:31:20;50.97;;;33.20;;
52248;SDS011;38541;48.130;8.378;2023-03-04T05:33:47;47.88;;;28.30;;
52248;SDS011;38541;48.130;8.378;2023-03-04T05:36:13;41.58;;;26.60;;
52248;SDS011;38541;48.130;8.378;2023-03-04T05:38:39;43.78;;;26.33;;
52248;SDS011;38541;48.130;8.378;2023-03-04T05:41:06;39.70;;;25.05;;
52248;SDS011;38541;48.130;8.378;2023-03-04T05:43:33;40.28;;;26.50;;
52248;SDS011;38541;48.130;8.378;2023-03-04T05:46:01;39.20;;;27.35;;
52248;SDS011;38541;48.130;8.378;2023-03-04T05:48:28;34.38;;;24.50;;
52248;SDS011;38541;48.130;8.378;2023-03-04T05:50:56;40.33;;;25.75;;
52248;SDS011;38541;48.130;8.378;2023-03-04T05:53:24;37.03;;;24.33;;
52248;SDS011;38541;48.130;8.378;2023-03-04T05:55:51;39.08;;;24.25;;
52248;SDS011;38541;48.130;8.378;2023-03-04T05:58:18;38.60;;;25.88;;
52248;SDS011;38541;48.130;8.378;2023-03-04T06:00:45;31.77;;;22.17;;
52248;SDS011;38541;48.130;8.378;2023-03-04T06:03:13;36.33;;;24.75;;
52248;SDS011;38541;48.130;8.378;2023-03-04T06:05:43;36.70;;;24.85;;
52248;SDS011;38541;48.130;8.378;2023-03-04T06:08:11;32.47;;;23.80;;
52248;SDS011;38541;48.130;8.378;2023-03-04T06:10:38;31.60;;;22.63;;
52248;SDS011;38541;48.130;8.378;2023-03-04T06:13:05;36.25;;;24.02;;
52248;SDS011;38541;48.130;8.378;2023-03-04T06:15:32;38.55;;;22.83;;
52248;SDS011;38541;48.130;8.378;2023-03-04T06:17:58;33.22;;;22.45;;
52248;SDS011;38541;48.130;8.378;2023-03-04T06:20:25;38.20;;;23.48;;
52248;SDS011;38541;48.130;8.378;2023-03-04T06:22:51;38.42;;;24.05;;
52248;SDS011;38541;48.130;8.378;2023-03-04T06:25:18;39.85;;;24.05;;
52248;SDS011;38541;48.130;8.378;2023-03-04T06:27:44;35.47;;;24.20;;
52248;SDS011;38541;48.130;8.378;2023-03-04T06:30:11;37.22;;;25.75;;
52248;SDS011;38541;48.130;8.378;2023-03-04T06:32:38;35.45;;;25.10;;
52248;SDS011;38541;48.130;8.378;2023-03-04T06:35:05;35.28;;;23.50;;
52248;SDS011;38541;48.130;8.378;2023-03-04T06:37:32;38.20;;;26.00;;
52248;SDS011;38541;48.130;8.378;2023-03-04T06:39:58;37.08;;;25.45;;
52248;SDS011;38541;48.130;8.378;2023-03-04T06:42:25;37.97;;;26.58;;
52248;SDS011;38541;48.130;8.378;2023-03-04T06:44:51;42.15;;;25.52;;
52248;SDS011;38541;48.130;8.378;2023-03-04T06:47:18;37.78;;;26.33;;
52248;SDS011;38541;48.130;8.378;2023-03-04T06:49:44;40.53;;;25.77;;
52248;SDS011;38541;48.130;8.378;2023-03-04T06:52:10;42.47;;;25.88;;
52248;SDS011;38541;48.130;8.378;2023-03-04T06:54:38;43.20;;;29.20;;
52248;SDS011;38541;48.130;8.378;2023-03-04T06:57:05;45.28;;;29.00;;
52248;SDS011;38541;48.130;8.378;2023-03-04T06:59:32;40.95;;;27.48;;
52248;SDS011;38541;48.130;8.378;2023-03-04T07:01:59;37.20;;;27.33;;
52248;SDS011;38541;48.130;8.378;2023-03-04T07:04:25;38.42;;;26.30;;
52248;SDS011;38541;48.130;8.378;2023-03-04T07:06:52;39.85;;;25.92;;
52248;SDS011;38541;48.130;8.378;2023-03-04T07:09:18;35.53;;;25.77;;
52248;SDS011;38541;48.130;8.378;2023-03-04T07:11:45;59.95;;;34.10;;
52248;SDS011;38541;48.130;8.378;2023-03-04T07:14:11;89.80;;;46.45;;
52248;SDS011;38541;48.130;8.378;2023-03-04T07:16:38;64.32;;;38.33;;
52248;SDS011;38541;48.130;8.378;2023-03-04T07:19:04;51.28;;;30.85;;
52248;SDS011;38541;48.130;8.378;2023-03-04T07:21:31;43.22;;;28.70;;
52248;SDS011;38541;48.130;8.378;2023-03-04T07:23:58;47.75;;;30.10;;
52248;SDS011;38541;48.130;8.378;2023-03-04T07:26:24;65.20;;;37.42;;
52248;SDS011;38541;48.130;8.378;2023-03-04T07:28:51;47.22;;;32.60;;
52248;SDS011;38541;48.130;8.378;2023-03-04T07:31:23;42.67;;;27.83;;
52248;SDS011;38541;48.130;8.378;2023-03-04T07:33:58;40.53;;;28.65;;
52248;SDS011;38541;48.130;8.378;2023-03-04T07:36:26;37.72;;;27.88;;
52248;SDS011;38541;48.130;8.378;2023-03-04T07:38:53;45.58;;;29.88;;
52248;SDS011;38541;48.130;8.378;2023-03-04T07:41:21;47.13;;;30.30;;
52248;SDS011;38541;48.130;8.378;2023-03-04T07:43:49;45.67;;;30.73;;
52248;SDS011;38541;48.130;8.378;2023-03-04T07:46:16;42.08;;;30.48;;
52248;SDS011;38541;48.130;8.378;2023-03-04T07:48:44;42.75;;;30.25;;
52248;SDS011;38541;48.130;8.378;2023-03-04T07:51:12;41.83;;;29.42;;
52248;SDS011;38541;48.130;8.378;2023-03-04T07:53:44;41.55;;;29.65;;
52248;SDS011;38541;48.130;8.378;2023-03-04T07:56:13;44.45;;;30.48;;
52248;SDS011;38541;48.130;8.378;2023-03-04T07:58:41;41.15;;;31.08;;
52248;SDS011;38541;48.130;8.378;2023-03-04T08:01:12;39.95;;;29.52;;
52248;SDS011;38541;48.130;8.378;2023-03-04T08:03:43;44.35;;;30.30;;
52248;SDS011;38541;48.130;8.378;2023-03-04T08:06:11;47.28;;;32.60;;
52248;SDS011;38541;48.130;8.378;2023-03-04T08:08:39;45.42;;;30.90;;
52248;SDS011;38541;48.130;8.378;2023-03-04T08:11:07;39.20;;;27.80;;
52248;SDS011;38541;48.130;8.378;2023-03-04T08:13:34;42.72;;;29.00;;
52248;SDS011;38541;48.130;8.378;2023-03-04T08:16:01;43.20;;;28.00;;
52248;SDS011;38541;48.130;8.378;2023-03-04T08:18:28;40.78;;;27.85;;
52248;SDS011;38541;48.130;8.378;2023-03-04T08:20:55;40.72;;;28.17;;
52248;SDS011;38541;48.130;8.378;2023-03-04T08:23:22;45.13;;;29.23;;
52248;SDS011;38541;48.130;8.378;2023-03-04T08:25:48;44.00;;;29.10;;
52248;SDS011;38541;48.130;8.378;2023-03-04T08:28:15;45.13;;;31.85;;
52248;SDS011;38541;48.130;8.378;2023-03-04T08:30:42;43.78;;;29.77;;
52248;SDS011;38541;48.130;8.378;2023-03-04T08:33:09;47.65;;;31.10;;
52248;SDS011;38541;48.130;8.378;2023-03-04T08:35:36;44.42;;;30.15;;
52248;SDS011;38541;48.130;8.378;2023-03-04T08:38:05;34.40;;;26.85;;
52248;SDS011;38541;48.130;8.378;2023-03-04T08:40:32;40.17;;;28.42;;
52248;SDS011;38541;48.130;8.378;2023-03-04T08:42:58;42.45;;;29.92;;
52248;SDS011;38541;48.130;8.378;2023-03-04T08:45:25;45.47;;;30.42;;
52248;SDS011;38541;48.130;8.378;2023-03-04T08:47:51;40.70;;;28.17;;
52248;SDS011;38541;48.130;8.378;2023-03-04T08:50:18;40.92;;;27.67;;
52248;SDS011;38541;48.130;8.378;2023-03-04T08:52:47;39.78;;;27.08;;
52248;SDS011;38541;48.130;8.378;2023-03-04T08:55:14;42.95;;;27.77;;
52248;SDS011;38541;48.130;8.378;2023-03-04T08:57:40;46.83;;;28.52;;
52248;SDS011;38541;48.130;8.378;2023-03-04T09:00:07;46.40;;;30.58;;
52248;SDS011;38541;48.130;8.378;2023-03-04T09:02:34;47.05;;;29.95;;
52248;SDS011;38541;48.130;8.378;2023-03-04T09:05:00;41.03;;;26.42;;
52248;SDS011;38541;48.130;8.378;2023-03-04T09:07:26;42.38;;;25.08;;
52248;SDS011;38541;48.130;8.378;2023-03-04T09:09:53;43.60;;;26.75;;
52248;SDS011;38541;48.130;8.378;2023-03-04T09:12:19;41.92;;;24.30;;
52248;SDS011;38541;48.130;8.378;2023-03-04T09:14:46;38.30;;;26.02;;
52248;SDS011;38541;48.130;8.378;2023-03-04T09:17:23;38.28;;;25.55;;
52248;SDS011;38541;48.130;8.378;2023-03-04T09:19:49;40.63;;;24.50;;
52248;SDS011;38541;48.130;8.378;2023-03-04T09:22:16;40.20;;;26.60;;
52248;SDS011;38541;48.130;8.378;2023-03-04T09:24:42;37.63;;;23.80;;
52248;SDS011;38541;48.130;8.378;2023-03-04T09:27:09;35.40;;;23.48;;
52248;SDS011;38541;48.130;8.378;2023-03-04T09:29:35;38.10;;;24.05;;
52248;SDS011;38541;48.130;8.378;2023-03-04T09:32:02;38.17;;;24.70;;
52248;SDS011;38541;48.130;8.378;2023-03-04T09:34:28;36.25;;;24.05;;
52248;SDS011;38541;48.130;8.378;2023-03-04T09:36:55;37.03;;;23.70;;
52248;SDS011;38541;48.130;8.378;2023-03-04T09:39:21;40.13;;;25.10;;
52248;SDS011;38541;48.130;8.378;2023-03-04T09:41:48;37.00;;;24.02;;
52248;SDS011;38541;48.130;8.378;2023-03-04T09:44:25;34.30;;;22.05;;
52248;SDS011;38541;48.130;8.378;2023-03-04T09:46:56;38.10;;;22.38;;
52248;SDS011;38541;48.130;8.378;2023-03-04T09:49:25;32.50;;;20.75;;
52248;SDS011;38541;48.130;8.378;2023-03-04T09:51:58;33.88;;;21.38;;
52248;SDS011;38541;48.130;8.378;2023-03-04T09:57:13;30.73;;;20.70;;
52248;SDS011;38541;48.130;8.378;2023-03-04T10:02:43;27.45;;;18.98;;
52248;SDS011;38541;48.130;8.378;2023-03-04T10:05:18;30.58;;;20.45;;
52248;SDS011;38541;48.130;8.378;2023-03-04T10:10:48;34.40;;;21.40;;
52248;SDS011;38541;48.130;8.378;2023-03-04T10:13:22;30.73;;;19.35;;
52248;SDS011;38541;48.130;8.378;2023-03-04T10:15:57;27.35;;;19.25;;
52248;SDS011;38541;48.130;8.378;2023-03-04T10:18:27;33.30;;;21.23;;
52248;SDS011;38541;48.130;8.378;2023-03-04T10:21:01;30.23;;;19.90;;
52248;SDS011;38541;48.130;8.378;2023-03-04T10:23:32;35.85;;;20.42;;
52248;SDS011;38541;48.130;8.378;2023-03-04T10:26:01;29.83;;;19.85;;
52248;SDS011;38541;48.130;8.378;2023-03-04T10:28:37;29.60;;;18.90;;
52248;SDS011;38541;48.130;8.378;2023-03-04T10:33:34;34.35;;;20.02;;
52248;SDS011;38541;48.130;8.378;2023-03-04T10:38:34;26.08;;;17.38;;
52248;SDS011;38541;48.130;8.378;2023-03-04T10:41:19;25.50;;;17.45;;
52248;SDS011;38541;48.130;8.378;2023-03-04T10:46:40;26.83;;;15.88;;
52248;SDS011;38541;48.130;8.378;2023-03-04T10:49:08;26.77;;;15.30;;
52248;SDS011;38541;48.130;8.378;2023-03-04T10:51:49;22.20;;;15.82;;
52248;SDS011;38541;48.130;8.378;2023-03-04T10:54:29;23.75;;;16.08;;
52248;SDS011;38541;48.130;8.378;2023-03-04T10:57:02;23.73;;;15.75;;
52248;SDS011;38541;48.130;8.378;2023-03-04T11:02:19;23.65;;;16.75;;
52248;SDS011;38541;48.130;8.378;2023-03-04T11:04:49;24.35;;;15.90;;
52248;SDS011;38541;48.130;8.378;2023-03-04T11:07:21;25.95;;;17.30;;
52248;SDS011;38541;48.130;8.378;2023-03-04T11:09:48;25.13;;;14.65;;
52248;SDS011;38541;48.130;8.378;2023-03-04T11:12:16;26.52;;;14.63;;
52248;SDS011;38541;48.130;8.378;2023-03-04T11:14:46;19.13;;;12.48;;
52248;SDS011;38541;48.130;8.378;2023-03-04T11:17:16;23.75;;;14.05;;
52248;SDS011;38541;48.130;8.378;2023-03-04T11:19:44;24.50;;;15.60;;
52248;SDS011;38541;48.130;8.378;2023-03-04T11:22:14;23.67;;;14.70;;
52248;SDS011;38541;48.130;8.378;2023-03-04T11:24:43;22.45;;;13.77;;
52248;SDS011;38541;48.130;8.378;2023-03-04T11:29:50;22.50;;;13.93;;
52248;SDS011;38541;48.130;8.378;2023-03-04T11:32:23;19.20;;;12.88;;
52248;SDS011;38541;48.130;8.378;2023-03-04T11:34:54;21.40;;;12.43;;
52248;SDS011;38541;48.130;8.378;2023-03-04T11:37:29;19.05;;;11.73;;
52248;SDS011;38541;48.130;8.378;2023-03-04T11:40:03;17.60;;;12.75;;
52248;SDS011;38541;48.130;8.378;2023-03-04T11:42:40;17.80;;;11.10;;
52248;SDS011;38541;48.130;8.378;2023-03-04T11:45:36;14.43;;;8.95;;
52248;SDS011;38541;48.130;8.378;2023-03-04T11:50:51;10.70;;;7.27;;
52248;SDS011;38541;48.130;8.378;2023-03-04T11:53:30;12.95;;;6.35;;
52248;SDS011;38541;48.130;8.378;2023-03-04T12:01:32;8.95;;;3.90;;
52248;SDS011;38541;48.130;8.378;2023-03-04T12:15:25;4.82;;;2.95;;
52248;SDS011;38541;48.130;8.378;2023-03-04T12:20:49;7.13;;;4.90;;
52248;SDS011;38541;48.130;8.378;2023-03-04T12:23:43;7.32;;;5.40;;
52248;SDS011;38541;48.130;8.378;2023-03-04T12:29:28;8.82;;;5.80;;
52248;SDS011;38541;48.130;8.378;2023-03-04T12:43:20;8.27;;;5.65;;
52248;SDS011;38541;48.130;8.378;2023-03-04T12:48:36;8.13;;;5.30;;
52248;SDS011;38541;48.130;8.378;2023-03-04T12:56:50;8.85;;;5.80;;
52248;SDS011;38541;48.130;8.378;2023-03-04T12:59:21;7.43;;;5.03;;
52248;SDS011;38541;48.130;8.378;2023-03-04T13:01:55;6.97;;;5.53;;
52248;SDS011;38541;48.130;8.378;2023-03-04T13:12:23;8.77;;;6.47;;
52248;SDS011;38541;48.130;8.378;2023-03-04T13:17:39;7.10;;;5.18;;
52248;SDS011;38541;48.130;8.378;2023-03-04T13:20:17;6.82;;;5.70;;
52248;SDS011;38541;48.130;8.378;2023-03-04T13:22:45;9.75;;;6.32;;
52248;SDS011;38541;48.130;8.378;2023-03-04T13:25:30;7.85;;;6.10;;
52248;SDS011;38541;48.130;8.378;2023-03-04T13:38:21;7.63;;;5.65;;
52248;SDS011;38541;48.130;8.378;2023-03-04T13:43:39;8.00;;;6.43;;
52248;SDS011;38541;48.130;8.378;2023-03-04T13:51:22;10.52;;;7.28;;
52248;SDS011;38541;48.130;8.378;2023-03-04T14:01:34;8.52;;;6.63;;
52248;SDS011;38541;48.130;8.378;2023-03-04T14:04:25;201.63;;;29.85;;
52248;SDS011;38541;48.130;8.378;2023-03-04T14:06:55;8.75;;;6.57;;
52248;SDS011;38541;48.130;8.378;2023-03-04T14:09:24;8.88;;;7.25;;
52248;SDS011;38541;48.130;8.378;2023-03-04T14:17:05;7.30;;;6.43;;
52248;SDS011;38541;48.130;8.378;2023-03-04T14:19:44;10.63;;;7.40;;
52248;SDS011;38541;48.130;8.378;2023-03-04T14:22:28;9.70;;;7.30;;
52248;SDS011;38541;48.130;8.378;2023-03-04T14:27:30;10.45;;;8.10;;
52248;SDS011;38541;48.130;8.378;2023-03-04T14:30:02;8.25;;;7.07;;
52248;SDS011;38541;48.130;8.378;2023-03-04T14:32:30;9.38;;;7.00;;
52248;SDS011;38541;48.130;8.378;2023-03-04T14:35:01;7.63;;;6.63;;
52248;SDS011;38541;48.130;8.378;2023-03-04T14:40:19;10.73;;;8.57;;
52248;SDS011;38541;48.130;8.378;2023-03-04T14:42:50;9.35;;;7.75;;
52248;SDS011;38541;48.130;8.378;2023-03-04T14:45:21;12.20;;;8.80;;
52248;SDS011;38541;48.130;8.378;2023-03-04T14:47:49;8.88;;;7.35;;
52248;SDS011;38541;48.130;8.378;2023-03-04T14:50:19;10.45;;;8.55;;
52248;SDS011;38541;48.130;8.378;2023-03-04T14:52:47;11.60;;;9.40;;
52248;SDS011;38541;48.130;8.378;2023-03-04T14:55:18;11.90;;;8.68;;
52248;SDS011;38541;48.130;8.378;2023-03-04T14:57:49;10.88;;;8.82;;
52248;SDS011;38541;48.130;8.378;2023-03-04T15:00:36;10.52;;;9.43;;
52248;SDS011;38541;48.130;8.378;2023-03-04T15:03:19;12.45;;;9.70;;
52248;SDS011;38541;48.130;8.378;2023-03-04T15:05:50;14.32;;;9.77;;
52248;SDS011;38541;48.130;8.378;2023-03-04T15:10:54;11.93;;;9.35;;
52248;SDS011;38541;48.130;8.378;2023-03-04T15:16:04;14.38;;;9.95;;
52248;SDS011;38541;48.130;8.378;2023-03-04T15:18:31;14.60;;;10.52;;
52248;SDS011;38541;48.130;8.378;2023-03-04T15:20:58;14.75;;;10.88;;
52248;SDS011;38541;48.130;8.378;2023-03-04T15:23:28;14.30;;;11.57;;
52248;SDS011;38541;48.130;8.378;2023-03-04T15:25:56;15.25;;;10.88;;
52248;SDS011;38541;48.130;8.378;2023-03-04T15:28:25;15.75;;;12.43;;
52248;SDS011;38541;48.130;8.378;2023-03-04T15:30:55;18.23;;;12.65;;
52248;SDS011;38541;48.130;8.378;2023-03-04T15:33:22;19.05;;;13.60;;
52248;SDS011;38541;48.130;8.378;2023-03-04T15:35:53;20.10;;;14.15;;
52248;SDS011;38541;48.130;8.378;2023-03-04T15:38:22;17.15;;;13.65;;
52248;SDS011;38541;48.130;8.378;2023-03-04T15:40:50;18.20;;;13.65;;
52248;SDS011;38541;48.130;8.378;2023-03-04T15:43:20;20.38;;;13.82;;
52248;SDS011;38541;48.130;8.378;2023-03-04T15:45:48;19.25;;;13.40;;
52248;SDS011;38541;48.130;8.378;2023-03-04T15:48:16;20.02;;;13.80;;
52248;SDS011;38541;48.130;8.378;2023-03-04T15:50:47;18.02;;;13.00;;
52248;SDS011;38541;48.130;8.378;2023-03-04T15:55:54;18.85;;;13.38;;
52248;SDS011;38541;48.130;8.378;2023-03-04T15:58:21;22.42;;;13.93;;
52248;SDS011;38541;48.130;8.378;2023-03-04T16:00:47;21.38;;;14.68;;
52248;SDS011;38541;48.130;8.378;2023-03-04T16:03:15;22.98;;;14.45;;
52248;SDS011;38541;48.130;8.378;2023-03-04T16:05:43;24.23;;;15.25;;
52248;SDS011;38541;48.130;8.378;2023-03-04T16:08:13;22.27;;;15.63;;
52248;SDS011;38541;48.130;8.378;2023-03-04T16:10:45;20.73;;;15.80;;
52248;SDS011;38541;48.130;8.378;2023-03-04T16:13:13;22.10;;;15.30;;
52248;SDS011;38541;48.130;8.378;2023-03-04T16:15:42;22.10;;;14.77;;
52248;SDS011;38541;48.130;8.378;2023-03-04T16:18:10;23.80;;;15.40;;
52248;SDS011;38541;48.130;8.378;2023-03-04T16:20:37;22.15;;;14.65;;
52248;SDS011;38541;48.130;8.378;2023-03-04T16:23:05;22.55;;;15.30;;
52248;SDS011;38541;48.130;8.378;2023-03-04T16:25:37;19.98;;;14.15;;
52248;SDS011;38541;48.130;8.378;2023-03-04T16:28:04;21.17;;;13.38;;
52248;SDS011;38541;48.130;8.378;2023-03-04T16:30:31;17.63;;;11.90;;
52248;SDS011;38541;48.130;8.378;2023-03-04T16:32:58;15.07;;;10.45;;
52248;SDS011;38541;48.130;8.378;2023-03-04T16:35:24;12.60;;;9.60;;